Terminal Aerodrome Forecast
Issued by NWS Sterling, VA

Current Version | Previous Version | Graphics & Text | Print | Product List | Glossary On
Versions: 1 2 3 4 5 6 7 8 9 10 11 12 13 14 15
424
FTUS41 KLWX 261721
TAFMRB
TAF
KMRB 261721Z 2618/2718 VRB04KT P6SM OVC022
     FM261900 VRB03KT P6SM BKN040
     FM270200 VRB03KT P6SM FEW050
     FM270800 VRB03KT 5SM BR SCT010
     FM270900 VRB03KT 2SM BR SCT010
     FM271400 16008KT P6SM SCT250=

USA.gov is the U.S. government's official web portal to all federal, state and local government web resources and services.